RPLC METAR and TAF | Updated Today

RPLC METAR

Diosdado Macapagal International Airport

Observation time: 18 min. ago

RPLC 062000Z 29002KT 9999 FEW020 SCT300 26/22 Q1011 NOSIG RMK A2985

Need help? Read our tutorial on how to read METARs or read the parsed version below.

Diosdado Macapagal International Airport (RPLC) METAR

  • Weather conditions on Thu, 06 Oct 2022 20:00:00 +0000 (18 min. ago):
  • Present conditions: Dry
  • Clouds: A few at 610 meters; scattered at 9144 meters
  • Visibility: Greater than 10 km
  • Wind: 290 degrees at 2 knots
  • Temperature: 26 celsius
  • Dew point: 22 celsius
  • Pressure: 1011 millibars
  • Remarks: A2985


Useful to know...

RPLC TAF

Diosdado Macapagal International Airport

TAF RPLC 061700Z 0618/0724 25005KT 8000 FEW020 BKN300 TX34/0706Z TN25/0621Z TEMPO 0618/0624 35004KT
Observation time: 3:18 hr. ago
Need help? Read our tutorial on how to read TAFs or read the parsed version below.

Parsed version of TAF for Diosdado Macapagal International Airport (RPLC)

  • From 06 October at 18:00 UTC, to day 07 of the month at 24:00 UTC
  • Clouds: A few at 610 meters; broken sky at 9144 meters
  • Visibility: 8000 meters
  • Wind: 250 degrees at 5
  • Expected to arise temporarily, from 06 October at 18:00 UTC, to day 06 of the month at 24:00 UTC
  • Wind: 350 degrees at 4